Time;durP1;ratioP1;P1;durP2;ratioP2;P2;SDS_P1;SDS_P2;PMS_P1;PMS_P2;Temp;Humidity;BMP_temperature;BMP_pressure;BME280_temperature;BME280_humidity;BME280_pressure;Samples;Min_cycle;Max_cycle;Signal;HPM_P1;HPM_P2
2023/04/05 00:00:22;;;;;;;6.25;4.70;;;;;;;0.02;99.90;102408.19;1043186;28;20292;-76
2023/04/05 00:00:54;;;;;;;7.53;4.45;;;;;;;-0.14;99.49;102405.78;1047494;28;20294;-76
2023/04/05 00:01:27;;;;;;;7.10;5.72;;;;;;;-0.08;99.74;102408.81;1047694;28;20803;-76
2023/04/05 00:02:00;;;;;;;5.28;4.43;;;;;;;-0.04;99.76;102404.19;1047216;28;20294;-76
2023/04/05 00:02:32;;;;;;;5.15;4.53;;;;;;;-0.13;100.00;102410.09;1047386;28;20294;-76
2023/04/05 00:03:04;;;;;;;6.18;4.63;;;;;;;-0.16;100.00;102407.69;1047547;28;20290;-77
2023/04/05 00:03:36;;;;;;;7.25;3.88;;;;;;;-0.08;100.00;102407.97;1041337;28;20727;-78
2023/04/05 00:04:08;;;;;;;5.95;4.57;;;;;;;-0.10;100.00;102405.47;1046923;28;20302;-78
2023/04/05 00:04:49;;;;;;;8.38;4.38;;;;;;;-0.12;100.00;102402.13;1043117;28;20836;-78
2023/04/05 00:05:28;;;;;;;4.70;4.05;;;;;;;-0.06;100.00;102406.09;1042045;28;20291;-77
2023/04/05 00:06:01;;;;;;;5.65;4.72;;;;;;;-0.15;100.00;102404.97;1046011;28;20087;-78
2023/04/05 00:06:33;;;;;;;6.43;3.70;;;;;;;-0.16;100.00;102405.06;1044542;28;20333;-78
2023/04/05 00:07:07;;;;;;;8.13;3.95;;;;;;;-0.13;100.00;102404.84;1043749;28;20295;-78
2023/04/05 00:07:39;;;;;;;5.15;3.70;;;;;;;-0.28;100.00;102400.69;1045208;28;20303;-78
2023/04/05 00:08:22;;;;;;;5.85;3.95;;;;;;;-0.24;100.00;102402.16;1047698;28;20302;-78
2023/04/05 00:09:12;;;;;;;4.78;4.13;;;;;;;-0.33;100.00;102399.22;1043282;28;20444;-78
2023/04/05 00:09:44;;;;;;;6.07;3.80;;;;;;;-0.38;100.00;102396.09;1038969;28;20447;-78
2023/04/05 00:10:15;;;;;;;8.85;3.85;;;;;;;-0.42;100.00;102394.63;1035517;28;20364;-78
2023/04/05 00:10:47;;;;;;;6.22;4.20;;;;;;;-0.44;100.00;102396.53;1042388;28;20291;-78
2023/04/05 00:11:18;;;;;;;6.47;4.13;;;;;;;-0.44;100.00;102401.75;1035234;28;20323;-78
2023/04/05 00:11:50;;;;;;;5.45;3.83;;;;;;;-0.43;100.00;102392.97;1039663;28;20315;-78
2023/04/05 00:12:21;;;;;;;9.32;4.65;;;;;;;-0.45;100.00;102394.84;1038465;28;20419;-78
2023/04/05 00:12:53;;;;;;;6.50;4.20;;;;;;;-0.52;100.00;102396.22;1043811;28;20657;-78
2023/04/05 00:13:25;;;;;;;5.60;4.47;;;;;;;-0.54;100.00;102395.50;1047705;28;20291;-75
2023/04/05 00:14:01;;;;;;;9.05;5.55;;;;;;;-0.44;100.00;102398.31;1040950;28;20816;-76
2023/04/05 00:14:32;;;;;;;13.23;4.85;;;;;;;-0.42;100.00;102399.88;1039265;28;20655;-76
2023/04/05 00:15:04;;;;;;;6.22;4.80;;;;;;;-0.52;100.00;102406.69;1038983;28;20305;-75
2023/04/05 00:15:36;;;;;;;8.20;5.18;;;;;;;-0.64;100.00;102402.28;1040490;28;20817;-76
2023/04/05 00:16:08;;;;;;;8.15;5.07;;;;;;;-0.54;100.00;102405.13;1038821;28;20297;-78
2023/04/05 00:16:39;;;;;;;6.93;4.80;;;;;;;-0.55;100.00;102400.81;1042391;28;20299;-78
2023/04/05 00:17:12;;;;;;;8.02;5.32;;;;;;;-0.57;100.00;102408.75;1035255;28;20790;-78
2023/04/05 00:17:44;;;;;;;7.20;5.85;;;;;;;-0.55;100.00;102399.03;1044794;28;20299;-78
2023/04/05 00:18:22;;;;;;;6.25;5.35;;;;;;;-0.53;100.00;102407.63;1042103;28;20296;-78
2023/04/05 00:18:56;;;;;;;6.55;5.00;;;;;;;-0.44;100.00;102411.41;1048510;28;20330;-78
2023/04/05 00:19:27;;;;;;;5.65;4.30;;;;;;;-0.28;100.00;102411.16;1049003;28;20344;-78
2023/04/05 00:20:00;;;;;;;9.57;5.25;;;;;;;-0.27;100.00;102402.34;1044389;28;20287;-78
2023/04/05 00:20:32;;;;;;;6.32;4.05;;;;;;;-0.33;100.00;102404.47;1041795;28;20288;-78
2023/04/05 00:21:04;;;;;;;9.00;5.60;;;;;;;-0.37;100.00;102405.63;1037050;28;20347;-78
2023/04/05 00:21:38;;;;;;;7.43;4.85;;;;;;;-0.41;100.00;102403.31;1039921;28;20307;-78
2023/04/05 00:22:10;;;;;;;5.65;4.80;;;;;;;-0.43;100.00;102400.81;1042383;28;20295;-78
2023/04/05 00:22:45;;;;;;;6.53;5.22;;;;;;;-0.52;100.00;102398.00;1040664;28;20304;-78
2023/04/05 00:23:17;;;;;;;6.05;4.93;;;;;;;-0.41;100.00;102396.31;1039664;28;20796;-78
2023/04/05 00:23:53;;;;;;;5.05;4.20;;;;;;;-0.39;100.00;102386.56;1037927;28;20388;-78
2023/04/05 00:24:25;;;;;;;6.28;5.15;;;;;;;-0.46;100.00;102387.94;1034284;28;20308;-78
2023/04/05 00:24:56;;;;;;;7.88;5.13;;;;;;;-0.40;100.00;102389.28;1038015;28;20336;-78
2023/04/05 00:25:28;;;;;;;7.65;5.15;;;;;;;-0.33;100.00;102388.75;1039978;28;20311;-78
2023/04/05 00:26:00;;;;;;;8.20;5.53;;;;;;;-0.35;100.00;102390.63;1036430;28;20300;-78
2023/04/05 00:26:31;;;;;;;8.32;5.40;;;;;;;-0.43;100.00;102389.50;1044427;28;20323;-78
2023/04/05 00:27:04;;;;;;;9.05;5.03;;;;;;;-0.51;100.00;102394.44;1045390;28;20819;-78
2023/04/05 00:27:36;;;;;;;8.82;5.10;;;;;;;-0.50;100.00;102396.13;1040340;28;20308;-78
2023/04/05 00:28:08;;;;;;;6.60;5.32;;;;;;;-0.54;100.00;102397.28;1036106;28;20299;-78
2023/04/05 00:28:39;;;;;;;9.27;6.07;;;;;;;-0.56;100.00;102397.34;1032008;28;20298;-78
2023/04/05 00:29:11;;;;;;;8.43;5.97;;;;;;;-0.57;100.00;102385.22;1035519;28;20307;-78
2023/04/05 00:29:42;;;;;;;7.88;5.68;;;;;;;-0.53;100.00;102396.34;1036226;28;20300;-78
2023/04/05 00:30:19;;;;;;;15.10;6.70;;;;;;;-0.52;100.00;102390.16;1038957;28;20384;-78
2023/04/05 00:30:51;;;;;;;9.10;6.57;;;;;;;-0.62;100.00;102388.16;1037804;28;20363;-79
2023/04/05 00:31:23;;;;;;;6.05;5.43;;;;;;;-0.63;100.00;102385.66;1042037;28;20820;-78
2023/04/05 00:31:55;;;;;;;7.75;5.75;;;;;;;-0.65;100.00;102382.28;1044059;28;20310;-79
2023/04/05 00:32:27;;;;;;;8.73;6.85;;;;;;;-0.55;100.00;102383.31;1046234;28;20303;-78
2023/04/05 00:32:59;;;;;;;8.18;6.13;;;;;;;-0.49;100.00;102377.69;1045148;28;20793;-78
2023/04/05 00:33:31;;;;;;;6.13;5.20;;;;;;;-0.63;100.00;102375.19;1044004;28;20331;-78
2023/04/05 00:34:04;;;;;;;9.30;6.30;;;;;;;-0.67;100.00;102387.63;1044107;28;20299;-78
2023/04/05 00:34:37;;;;;;;12.15;6.35;;;;;;;-0.84;100.00;102379.25;1041955;28;20326;-78
2023/04/05 00:35:09;;;;;;;8.25;6.32;;;;;;;-0.85;100.00;102383.66;1038943;28;20304;-79
2023/04/05 00:35:40;;;;;;;9.43;5.78;;;;;;;-0.76;100.00;102379.59;1038148;28;20445;-78
2023/04/05 00:36:14;;;;;;;11.23;6.78;;;;;;;-0.55;100.00;102378.09;1032881;28;20309;-79
2023/04/05 00:36:46;;;;;;;8.43;5.35;;;;;;;-0.32;100.00;102379.13;1032898;28;20297;-78
2023/04/05 00:37:18;;;;;;;7.32;6.43;;;;;;;-0.29;100.00;102381.50;1039721;28;20304;-79
2023/04/05 00:37:49;;;;;;;6.90;5.40;;;;;;;-0.18;100.00;102381.63;1036590;28;20691;-79
2023/04/05 00:38:21;;;;;;;8.75;6.75;;;;;;;-0.15;100.00;102385.78;1038213;28;20288;-79
2023/04/05 00:38:54;;;;;;;8.90;6.47;;;;;;;-0.10;100.00;102386.31;1042549;28;20304;-79
2023/04/05 00:39:26;;;;;;;11.02;6.10;;;;;;;-0.15;100.00;102391.88;1032895;28;20325;-79
2023/04/05 00:39:58;;;;;;;8.88;7.30;;;;;;;-0.11;100.00;102388.09;1040291;28;20311;-78
2023/04/05 00:40:29;;;;;;;9.23;6.13;;;;;;;-0.02;100.00;102384.78;1039020;28;20288;-79
2023/04/05 00:41:01;;;;;;;7.85;6.45;;;;;;;-0.07;100.00;102389.53;1035541;28;20305;-78
2023/04/05 00:41:33;;;;;;;6.85;5.63;;;;;;;-0.03;100.00;102390.16;1040020;28;20295;-79
2023/04/05 00:42:05;;;;;;;8.35;6.50;;;;;;;0.10;100.00;102390.97;1038355;28;20308;-79
2023/04/05 00:42:36;;;;;;;8.27;6.13;;;;;;;0.10;100.00;102385.72;1040069;28;20731;-79
2023/04/05 00:43:08;;;;;;;8.25;6.00;;;;;;;0.34;100.00;102387.53;1048388;28;20294;-79
2023/04/05 00:43:40;;;;;;;8.55;6.60;;;;;;;0.23;100.00;102388.28;1043676;28;20306;-79
2023/04/05 00:44:12;;;;;;;9.30;7.60;;;;;;;0.24;100.00;102382.94;1032534;28;20302;-79
2023/04/05 00:44:44;;;;;;;7.63;6.35;;;;;;;0.35;100.00;102382.16;1031699;28;20305;-75
2023/04/05 00:45:16;;;;;;;10.95;6.53;;;;;;;0.32;100.00;102376.31;1035793;28;20297;-75
2023/04/05 00:45:47;;;;;;;7.75;6.60;;;;;;;0.39;100.00;102380.16;1036935;28;20347;-75
2023/04/05 00:46:19;;;;;;;9.27;6.75;;;;;;;0.43;100.00;102381.59;1039420;28;20311;-75
2023/04/05 00:46:51;;;;;;;9.00;6.90;;;;;;;0.45;100.00;102374.47;1031783;28;20637;-76
2023/04/05 00:47:22;;;;;;;11.15;6.78;;;;;;;0.52;100.00;102379.13;1031933;28;20902;-76
2023/04/05 00:47:54;;;;;;;10.25;6.53;;;;;;;0.50;100.00;102373.16;1036656;28;20307;-75
2023/04/05 00:48:27;;;;;;;9.57;6.97;;;;;;;0.51;99.80;102379.25;1036583;28;20292;-76
2023/04/05 00:48:59;;;;;;;11.80;6.45;;;;;;;0.52;99.54;102376.50;1031376;28;20364;-75
2023/04/05 00:49:32;;;;;;;8.10;6.15;;;;;;;0.54;98.87;102374.59;1032515;28;21468;-76
2023/04/05 00:50:05;;;;;;;11.10;7.55;;;;;;;0.55;98.91;102370.22;1030587;28;20349;-76
2023/04/05 00:50:37;;;;;;;7.90;6.50;;;;;;;0.48;98.65;102374.22;1033243;28;20338;-76
2023/04/05 00:51:10;;;;;;;7.57;6.20;;;;;;;0.53;98.03;102372.94;1039770;28;20295;-76
2023/04/05 00:51:42;;;;;;;13.00;7.75;;;;;;;0.53;97.73;102364.25;1037554;28;20307;-75
2023/04/05 00:52:14;;;;;;;8.98;7.13;;;;;;;0.56;97.30;102364.88;1040734;28;20295;-75
2023/04/05 00:52:46;;;;;;;9.00;7.18;;;;;;;0.55;97.21;102357.13;1039784;28;20303;-79
2023/04/05 00:53:18;;;;;;;10.77;6.85;;;;;;;0.52;97.11;102362.56;1040388;28;20304;-79
2023/04/05 00:53:51;;;;;;;10.52;6.97;;;;;;;0.57;96.42;102363.09;1040940;28;20295;-79
2023/04/05 00:54:30;;;;;;;8.65;6.32;;;;;;;0.58;96.58;102365.59;1047505;28;20306;-79
2023/04/05 00:55:03;;;;;;;8.88;7.07;;;;;;;0.56;96.04;102364.03;1041525;28;20809;-79
2023/04/05 00:55:34;;;;;;;8.60;6.03;;;;;;;0.40;96.55;102371.34;1040374;28;20303;-79
2023/04/05 00:56:07;;;;;;;9.43;6.85;;;;;;;0.41;97.12;102363.38;1035654;28;20400;-79
2023/04/05 00:56:39;;;;;;;9.13;6.25;;;;;;;0.15;97.51;102362.66;1042055;28;20379;-79
2023/04/05 00:57:11;;;;;;;8.85;6.68;;;;;;;0.00;97.63;102369.00;1049026;28;20298;-80
2023/04/05 00:57:44;;;;;;;8.18;5.95;;;;;;;0.01;97.82;102365.44;1043758;28;20373;-79
2023/04/05 00:58:18;;;;;;;11.32;5.97;;;;;;;0.01;98.62;102365.44;1041120;28;20291;-79
2023/04/05 00:58:50;;;;;;;9.15;5.38;;;;;;;-0.03;98.26;102364.78;1038532;28;20726;-79
2023/04/05 00:59:22;;;;;;;7.47;5.45;;;;;;;-0.22;99.08;102367.06;1041981;28;20751;-79
2023/04/05 00:59:57;;;;;;;8.68;6.25;;;;;;;-0.37;99.26;102363.72;1041361;28;20324;-79
2023/04/05 01:00:29;;;;;;;9.90;6.15;;;;;;;-0.28;99.60;102356.16;1039577;28;20300;-75
2023/04/05 01:01:05;;;;;;;11.13;5.63;;;;;;;-0.20;99.74;102361.72;1036925;28;20305;-76
2023/04/05 01:01:39;;;;;;;9.52;6.38;;;;;;;-0.31;99.69;102358.06;1041341;28;20300;-76
2023/04/05 01:02:17;;;;;;;8.02;5.28;;;;;;;-0.37;100.00;102361.13;1040818;28;20296;-75
2023/04/05 01:02:54;;;;;;;7.15;3.95;;;;;;;-0.31;100.00;102359.84;1041973;28;20373;-76
2023/04/05 01:03:30;;;;;;;5.00;4.60;;;;;;;-0.29;100.00;102357.94;1037867;28;20303;-75
2023/04/05 01:04:03;;;;;;;5.88;4.90;;;;;;;-0.39;100.00;102362.16;1035131;28;20383;-76
2023/04/05 01:04:36;;;;;;;5.00;4.38;;;;;;;-0.54;100.00;102364.09;1043767;28;20326;-76
2023/04/05 01:05:20;;;;;;;6.15;4.32;;;;;;;-0.62;100.00;102361.16;1045474;28;20789;-76
2023/04/05 01:06:01;;;;;;;6.95;4.13;;;;;;;-0.70;100.00;102366.09;1041277;28;20300;-76
2023/04/05 01:06:43;;;;;;;5.43;3.95;;;;;;;-0.79;100.00;102369.34;1036049;28;20398;-76
2023/04/05 01:07:18;;;;;;;4.78;4.32;;;;;;;-0.72;100.00;102370.59;1037512;28;20295;-75
2023/04/05 01:07:58;;;;;;;9.95;4.53;;;;;;;-0.81;100.00;102371.22;1043263;28;20295;-77
2023/04/05 01:08:45;;;;;;;7.55;4.47;;;;;;;-0.89;100.00;102360.41;1043533;28;20669;-75
2023/04/05 01:09:28;;;;;;;7.80;5.20;;;;;;;-0.97;100.00;102364.41;1039565;28;20304;-76
2023/04/05 01:10:00;;;;;;;6.10;5.10;;;;;;;-1.06;100.00;102362.41;1035697;28;20408;-76
2023/04/05 01:10:36;;;;;;;5.68;5.00;;;;;;;-1.06;100.00;102364.19;1031028;28;20399;-75
2023/04/05 01:11:09;;;;;;;6.00;4.50;;;;;;;-1.10;100.00;102366.16;1030302;28;21154;-76
2023/04/05 01:11:41;;;;;;;6.50;5.57;;;;;;;-1.09;100.00;102369.63;1031007;28;20368;-76
2023/04/05 01:12:32;;;;;;;6.90;4.88;;;;;;;-1.17;100.00;102367.50;1035094;28;20362;-77
2023/04/05 01:13:05;;;;;;;7.57;5.22;;;;;;;-1.16;100.00;102366.56;1033280;28;20144;-75
2023/04/05 01:13:37;;;;;;;7.32;4.75;;;;;;;-1.16;100.00;102366.56;1031869;28;20391;-76
2023/04/05 01:14:08;;;;;;;5.85;4.78;;;;;;;-1.11;100.00;102369.72;1035086;28;20708;-76
2023/04/05 01:14:49;;;;;;;6.75;5.88;;;;;;;-1.13;100.00;102366.38;1040099;28;20308;-75
2023/04/05 01:15:20;;;;;;;9.32;6.75;;;;;;;-1.18;100.00;102367.63;1042803;28;20318;-76
2023/04/05 01:15:52;;;;;;;8.73;5.40;;;;;;;-1.19;100.00;102366.78;1043850;28;20586;-76
2023/04/05 01:16:24;;;;;;;8.85;6.10;;;;;;;-1.24;100.00;102358.41;1042509;28;20374;-76
2023/04/05 01:16:57;;;;;;;8.63;6.28;;;;;;;-1.26;100.00;102357.69;1040571;28;20648;-76
2023/04/05 01:17:35;;;;;;;9.23;6.80;;;;;;;-1.28;100.00;102360.41;1043592;28;20429;-76
2023/04/05 01:18:09;;;;;;;9.00;6.40;;;;;;;-1.30;100.00;102361.44;1035667;28;20336;-76
2023/04/05 01:18:45;;;;;;;7.25;5.97;;;;;;;-1.34;100.00;102359.97;1034782;28;20294;-76
2023/04/05 01:19:17;;;;;;;12.20;6.05;;;;;;;-1.36;100.00;102359.25;1033627;28;20336;-76
2023/04/05 01:19:57;;;;;;;12.75;6.05;;;;;;;-1.26;100.00;102360.28;1039383;28;20775;-76
2023/04/05 01:20:32;;;;;;;;;;;;;;;-1.30;100.00;102358.81;1040296;28;20379;-76
2023/04/05 01:21:32;;;;;;;6.93;5.40;;;;;;;-1.32;100.00;102356.31;1044782;28;19921;-76
2023/04/05 01:22:40;;;;;;;7.43;5.43;;;;;;;-1.24;100.00;102358.41;1049179;28;20294;-76
2023/04/05 01:23:30;;;;;;;13.27;6.13;;;;;;;-1.26;100.00;102355.06;1048051;28;20773;-76
2023/04/05 01:24:37;;;;;;;8.15;5.25;;;;;;;-1.23;100.00;102354.84;1040658;28;20424;-76
2023/04/05 01:25:46;;;;;;;8.38;5.78;;;;;;;-1.21;100.00;102352.13;1033893;28;20298;-76
2023/04/05 01:26:45;;;;;;;11.43;6.30;;;;;;;-1.21;100.00;102363.44;1047188;28;20294;-77
2023/04/05 01:27:23;;;;;;;8.07;5.57;;;;;;;-1.19;100.00;102356.31;1042164;28;20299;-81
2023/04/05 01:27:58;;;;;;;7.05;5.28;;;;;;;-1.14;100.00;102359.47;1040341;28;20304;-81
2023/04/05 01:28:38;;;;;;;11.68;6.35;;;;;;;-1.13;100.00;102355.91;1043457;28;20303;-81
2023/04/05 01:29:31;;;;;;;7.13;6.07;;;;;;;-1.20;100.00;102362.50;1047076;28;20332;-77
2023/04/05 01:30:13;;;;;;;4.93;4.03;;;;;;;-1.06;100.00;102362.41;1047673;28;20290;-76
2023/04/05 01:31:06;;;;;;;12.32;5.63;;;;;;;-1.11;100.00;102354.03;1043784;28;20776;-76
2023/04/05 01:32:00;;;;;;;8.63;5.00;;;;;;;-1.16;100.00;102358.72;1044070;28;20669;-76
2023/04/05 01:32:42;;;;;;;7.45;5.28;;;;;;;-1.16;100.00;102350.06;1036766;28;20683;-77
2023/04/05 01:33:25;;;;;;;8.73;6.20;;;;;;;-1.18;100.00;102363.22;1035801;28;20742;-76
2023/04/05 01:34:02;;;;;;;11.48;6.28;;;;;;;-1.23;100.00;102360.09;1035454;28;20307;-76
2023/04/05 01:34:58;;;;;;;9.60;6.00;;;;;;;-1.21;100.00;102350.34;1039499;28;20319;-76
2023/04/05 01:35:58;;;;;;;6.75;4.63;;;;;;;-1.28;100.00;102352.56;1043551;28;20299;-76
2023/04/05 01:36:44;;;;;;;7.32;5.88;;;;;;;-1.29;100.00;102345.66;1037006;28;20387;-76
2023/04/05 01:37:18;;;;;;;8.57;5.07;;;;;;;-1.27;100.00;102349.00;1037401;28;20311;-76
2023/04/05 01:37:55;;;;;;;8.05;5.07;;;;;;;-1.32;100.00;102345.88;1035877;28;20307;-76
2023/04/05 01:38:27;;;;;;;5.85;4.65;;;;;;;-1.31;100.00;102342.31;1034889;28;20304;-77
2023/04/05 01:39:01;;;;;;;8.77;5.78;;;;;;;-1.30;100.00;102343.97;1036226;28;20815;-76
2023/04/05 01:39:34;;;;;;;7.40;5.03;;;;;;;-1.21;100.00;102346.91;1034284;28;20309;-76
2023/04/05 01:40:08;;;;;;;11.07;5.18;;;;;;;-1.19;100.00;102345.88;1023531;28;20314;-76
2023/04/05 01:40:40;;;;;;;8.88;6.63;;;;;;;-1.07;100.00;102354.69;1031606;28;20297;-76
2023/04/05 01:41:12;;;;;;;9.63;5.55;;;;;;;-1.00;100.00;102351.53;1032705;28;20293;-76
2023/04/05 01:41:43;;;;;;;7.15;5.25;;;;;;;-1.07;100.00;102346.84;1036227;28;20311;-76
2023/04/05 01:42:16;;;;;;;9.32;6.57;;;;;;;-1.12;100.00;102351.50;1040365;28;20287;-76
2023/04/05 01:42:47;;;;;;;9.50;5.75;;;;;;;-1.19;100.00;102345.88;1036421;28;20359;-76
2023/04/05 01:43:19;;;;;;;8.30;4.88;;;;;;;-1.26;100.00;102345.44;1039430;28;20304;-76
2023/04/05 01:43:51;;;;;;;11.18;6.35;;;;;;;-1.20;100.00;102349.41;1035805;28;20309;-76
2023/04/05 01:44:23;;;;;;;7.78;5.78;;;;;;;-1.24;100.00;102347.97;1035766;28;20845;-76
2023/04/05 01:44:55;;;;;;;6.78;5.80;;;;;;;-1.32;100.00;102345.88;1039466;28;20303;-81
2023/04/05 01:45:27;;;;;;;8.40;5.68;;;;;;;-1.36;100.00;102338.34;1036419;28;20356;-81
2023/04/05 01:45:59;;;;;;;7.68;5.95;;;;;;;-1.35;100.00;102345.22;1040510;28;20296;-81
2023/04/05 01:46:31;;;;;;;7.80;5.50;;;;;;;-1.36;100.00;102352.22;1043811;28;20832;-81
2023/04/05 01:47:03;;;;;;;9.57;6.75;;;;;;;-1.26;100.00;102344.59;1042736;28;20303;-81
2023/04/05 01:47:34;;;;;;;8.75;5.57;;;;;;;-1.35;100.00;102340.84;1038149;28;20320;-76
2023/04/05 01:48:06;;;;;;;7.75;5.85;;;;;;;-1.57;100.00;102344.03;1031241;28;20656;-76
2023/04/05 01:48:38;;;;;;;11.95;6.13;;;;;;;-1.47;100.00;102346.03;1039973;28;20813;-77
2023/04/05 01:49:09;;;;;;;10.60;7.00;;;;;;;-1.42;100.00;102344.78;1043458;28;20300;-76
2023/04/05 01:49:41;;;;;;;9.32;6.43;;;;;;;-1.49;100.00;102340.06;1040230;28;20828;-76
2023/04/05 01:50:12;;;;;;;8.68;5.95;;;;;;;-1.54;100.00;102352.59;1038769;28;20355;-76
2023/04/05 01:50:44;;;;;;;12.90;6.95;;;;;;;-1.53;100.00;102346.44;1031367;28;20653;-76
2023/04/05 01:51:16;;;;;;;6.22;5.63;;;;;;;-1.48;100.00;102344.34;1027952;28;20708;-76
2023/04/05 01:51:48;;;;;;;8.93;5.32;;;;;;;-1.44;100.00;102340.59;1031246;28;20290;-76
2023/04/05 01:52:20;;;;;;;14.25;7.57;;;;;;;-1.45;100.00;102341.53;1030386;28;20297;-76
2023/04/05 01:52:52;;;;;;;8.85;6.45;;;;;;;-1.46;100.00;102337.25;1027954;28;20364;-76
2023/04/05 01:53:24;;;;;;;9.02;6.05;;;;;;;-1.49;100.00;102340.06;1036388;28;20305;-76
2023/04/05 01:53:56;;;;;;;9.55;6.15;;;;;;;-1.46;100.00;102337.25;1043716;28;20310;-76
2023/04/05 01:54:28;;;;;;;10.07;6.07;;;;;;;-1.48;100.00;102331.28;1044149;28;20295;-76
2023/04/05 01:54:59;;;;;;;15.85;8.75;;;;;;;-1.49;100.00;102332.22;1044090;28;20303;-76
2023/04/05 01:55:31;;;;;;;10.82;6.70;;;;;;;-1.48;100.00;102333.91;1042819;28;20303;-76
2023/04/05 01:56:03;;;;;;;8.57;6.55;;;;;;;-1.48;100.00;102328.66;1035832;28;20671;-76
2023/04/05 01:56:34;;;;;;;10.40;7.85;;;;;;;-1.51;100.00;102328.88;1031766;28;20309;-76
2023/04/05 01:57:07;;;;;;;6.90;6.03;;;;;;;-1.52;100.00;102329.81;1031948;28;20341;-76
2023/04/05 01:57:38;;;;;;;8.43;6.65;;;;;;;-1.56;100.00;102332.63;1035229;28;20368;-76
2023/04/05 01:58:10;;;;;;;8.90;6.50;;;;;;;-1.46;100.00;102332.84;1044291;28;20804;-76
2023/04/05 01:58:42;;;;;;;9.85;7.65;;;;;;;-1.47;100.00;102335.56;1044132;28;20298;-76
2023/04/05 01:59:13;;;;;;;9.68;7.00;;;;;;;-1.43;100.00;102337.03;1044079;28;20398;-76
2023/04/05 01:59:45;;;;;;;10.45;7.18;;;;;;;-1.33;100.00;102335.50;1047513;28;20351;-76
2023/04/05 02:00:17;;;;;;;10.57;6.95;;;;;;;-1.21;100.00;102337.28;1035920;28;20347;-76
2023/04/05 02:00:53;;;;;;;9.63;7.25;;;;;;;-1.17;100.00;102341.38;1035851;28;20528;-81
2023/04/05 02:01:25;;;;;;;12.88;7.40;;;;;;;-1.24;100.00;102337.50;1035410;28;20316;-81
2023/04/05 02:01:56;;;;;;;9.32;7.22;;;;;;;-1.26;100.00;102334.16;1036361;28;20304;-80
2023/04/05 02:02:28;;;;;;;9.07;7.20;;;;;;;-1.35;100.00;102332.16;1038900;28;20304;-80
2023/04/05 02:03:00;;;;;;;13.48;7.50;;;;;;;-1.41;100.00;102336.00;1031645;28;20305;-80
2023/04/05 02:03:31;;;;;;;8.15;6.32;;;;;;;-1.39;100.00;102335.88;1035909;28;20340;-80
2023/04/05 02:04:03;;;;;;;8.88;6.78;;;;;;;-1.40;100.00;102334.22;1039766;28;20304;-81
2023/04/05 02:04:35;;;;;;;9.45;7.07;;;;;;;-1.44;100.00;102330.97;1040207;28;20327;-81
2023/04/05 02:05:07;;;;;;;12.30;7.43;;;;;;;-1.48;100.00;102323.44;1043692;28;20292;-80
2023/04/05 02:05:41;;;;;;;7.63;6.55;;;;;;;-1.52;100.00;102332.44;1037802;28;20308;-80
2023/04/05 02:06:13;;;;;;;10.43;6.90;;;;;;;-1.58;100.00;102337.13;1039569;28;20366;-80
2023/04/05 02:06:45;;;;;;;9.50;7.18;;;;;;;-1.64;100.00;102334.94;1038018;28;20324;-80
2023/04/05 02:07:16;;;;;;;8.20;6.50;;;;;;;-1.64;100.00;102329.69;1040682;28;20296;-80
2023/04/05 02:07:48;;;;;;;12.20;7.05;;;;;;;-1.62;100.00;102330.44;1042665;28;20358;-81
2023/04/05 02:08:19;;;;;;;10.38;6.97;;;;;;;-1.64;100.00;102334.94;1042641;28;20597;-80
2023/04/05 02:08:52;;;;;;;9.50;6.72;;;;;;;-1.42;100.00;102325.66;1041698;28;20299;-80
2023/04/05 02:09:24;;;;;;;10.82;7.28;;;;;;;-1.46;100.00;102327.63;1039448;28;20718;-81
2023/04/05 02:09:55;;;;;;;9.15;8.15;;;;;;;-1.48;100.00;102328.66;1038598;28;20308;-81
2023/04/05 02:10:27;;;;;;;11.23;6.43;;;;;;;-1.51;100.00;102334.94;1035629;28;20309;-80
2023/04/05 02:10:58;;;;;;;8.60;7.18;;;;;;;-1.48;100.00;102331.28;1037844;28;20311;-81
2023/04/05 02:11:30;;;;;;;10.40;7.20;;;;;;;-1.45;100.00;102333.69;1031728;28;20301;-80
2023/04/05 02:12:02;;;;;;;9.43;7.50;;;;;;;-1.42;100.00;102333.47;1033836;28;20305;-81
2023/04/05 02:12:34;;;;;;;10.05;6.53;;;;;;;-1.49;100.00;102332.22;1037689;28;20336;-80
2023/04/05 02:13:06;;;;;;;9.90;8.05;;;;;;;-1.50;100.00;102331.38;1035197;28;20814;-81
2023/04/05 02:13:37;;;;;;;8.98;6.82;;;;;;;-1.63;100.00;102336.59;1031567;28;20305;-80
2023/04/05 02:14:09;;;;;;;9.77;6.80;;;;;;;-1.60;100.00;102328.56;1031732;28;20798;-76
2023/04/05 02:14:41;;;;;;;9.68;7.68;;;;;;;-1.50;100.00;102334.00;1034995;28;20825;-75
2023/04/05 02:15:12;;;;;;;10.07;7.32;;;;;;;-1.52;100.00;102335.03;1036667;28;20293;-76
2023/04/05 02:15:48;;;;;;;10.68;6.95;;;;;;;-1.44;100.00;102325.75;1037145;28;20783;-76
2023/04/05 02:16:20;;;;;;;11.27;7.10;;;;;;;-1.48;100.00;102323.44;1035315;28;20307;-76
2023/04/05 02:16:55;;;;;;;12.07;7.18;;;;;;;-1.44;100.00;102324.91;1038532;28;20345;-76
2023/04/05 02:17:38;;;;;;;7.47;6.68;;;;;;;-1.51;100.00;102324.50;1036775;28;20307;-76
2023/04/05 02:18:12;;;;;;;8.68;6.28;;;;;;;-1.56;100.00;102321.34;1042063;28;20418;-75
2023/04/05 02:18:49;;;;;;;7.97;6.72;;;;;;;-1.53;100.00;102322.91;1043283;28;20377;-76
2023/04/05 02:19:22;;;;;;;9.43;7.18;;;;;;;-1.60;100.00;102325.09;1035627;28;20810;-81
2023/04/05 02:20:01;;;;;;;9.90;7.47;;;;;;;-1.61;100.00;102329.50;1031536;28;20415;-79
2023/04/05 02:20:33;;;;;;;13.00;7.20;;;;;;;-1.57;100.00;102328.34;1026137;28;20303;-81
2023/04/05 02:21:07;;;;;;;9.80;6.72;;;;;;;-1.60;100.00;102330.34;1029103;28;20294;-80
2023/04/05 02:21:40;;;;;;;10.32;8.05;;;;;;;-1.61;100.00;102324.28;1036890;28;20682;-80
2023/04/05 02:22:12;;;;;;;12.40;6.85;;;;;;;-1.61;100.00;102332.09;1041650;28;20673;-80
2023/04/05 02:22:44;;;;;;;9.20;6.75;;;;;;;-1.61;100.00;102326.88;1035272;28;20308;-80
2023/04/05 02:23:18;;;;;;;10.35;6.75;;;;;;;-1.62;100.00;102321.75;1040624;28;20308;-80
2023/04/05 02:23:53;;;;;;;10.63;6.78;;;;;;;-1.61;100.00;102329.50;1043313;28;20303;-80
2023/04/05 02:24:25;;;;;;;8.93;6.72;;;;;;;-1.61;100.00;102328.66;1043446;28;20386;-80
2023/04/05 02:24:56;;;;;;;12.57;6.60;;;;;;;-1.49;100.00;102327.84;1042599;28;20283;-80
2023/04/05 02:25:28;;;;;;;10.88;6.43;;;;;;;-1.39;100.00;102320.22;1033903;28;20332;-80
2023/04/05 02:26:00;;;;;;;14.43;7.07;;;;;;;-1.35;100.00;102332.16;1036346;28;20319;-80
2023/04/05 02:26:31;;;;;;;10.07;7.15;;;;;;;-1.55;100.00;102325.63;1039724;28;20296;-80
2023/04/05 02:27:03;;;;;;;10.45;8.30;;;;;;;-1.68;100.00;102333.41;1039171;28;20654;-80
2023/04/05 02:27:35;;;;;;;10.57;7.28;;;;;;;-1.68;100.00;102319.53;1041827;28;20805;-81
2023/04/05 02:28:07;;;;;;;10.95;8.00;;;;;;;-1.70;100.00;102324.84;1038990;28;21962;-80
2023/04/05 02:28:41;;;;;;;8.88;6.03;;;;;;;-1.75;100.00;102332.16;1043696;28;20801;-81
2023/04/05 02:29:12;;;;;;;8.43;6.63;;;;;;;-1.77;100.00;102323.59;1041140;28;20295;-80
2023/04/05 02:29:45;;;;;;;7.22;6.40;;;;;;;-1.78;100.00;102321.06;1043905;28;20311;-80
2023/04/05 02:30:18;;;;;;;7.57;6.78;;;;;;;-1.81;100.00;102322.13;1035905;28;20297;-80
2023/04/05 02:30:50;;;;;;;9.15;6.32;;;;;;;-1.87;100.00;102327.75;1035732;28;20312;-80
2023/04/05 02:31:21;;;;;;;10.40;6.80;;;;;;;-1.88;100.00;102326.91;1034457;28;20305;-81
2023/04/05 02:31:53;;;;;;;8.45;5.78;;;;;;;-1.91;100.00;102331.50;1034992;28;20335;-80
2023/04/05 02:32:24;;;;;;;11.07;6.82;;;;;;;-2.00;100.00;102324.22;1032407;28;20415;-75
2023/04/05 02:32:56;;;;;;;8.50;6.80;;;;;;;-1.96;100.00;102323.91;1043506;28;20826;-76
2023/04/05 02:33:29;;;;;;;7.28;6.10;;;;;;;-1.90;100.00;102322.72;1043450;28;20311;-76
2023/04/05 02:34:01;;;;;;;8.73;6.50;;;;;;;-1.77;100.00;102334.03;1040240;28;20666;-76
2023/04/05 02:34:35;;;;;;;8.82;6.97;;;;;;;-1.91;100.00;102328.88;1043271;28;20302;-76
2023/04/05 02:35:08;;;;;;;10.48;5.93;;;;;;;-1.88;100.00;102324.28;1036805;28;20297;-75
2023/04/05 02:35:40;;;;;;;12.77;7.25;;;;;;;-1.83;100.00;102329.22;1035706;28;20296;-75
2023/04/05 02:36:12;;;;;;;9.07;6.90;;;;;;;-1.88;100.00;102324.28;1029510;28;20305;-75
2023/04/05 02:36:44;;;;;;;9.35;7.25;;;;;;;-1.91;100.00;102321.03;1039325;28;20383;-75
2023/04/05 02:37:16;;;;;;;9.93;7.50;;;;;;;-1.95;100.00;102322.16;1038640;28;21338;-76
2023/04/05 02:37:47;;;;;;;12.88;7.97;;;;;;;-1.88;100.00;102323.44;1048054;28;20298;-75